LVNO2: Poteau River At Loving, OK

                                SHEF ID:       LVNO2     Poteau River at Loving, OK
STATION TYPE:
Regulating: Stage = 20.00, Flow = 4673

STAGE RIV-FLOW VOLTAGE BAT-LOAD
ft cfs volt volt
Ccp-Rev Ccp-Rev Ccp-Rev Ccp-Rev
(America/Chicago)
04/27 00:00 20.39 4865 12.84 ----
04/27 01:00 18.90 4126 12.82 ----
04/27 02:00 17.55 3448 12.81 ----
04/27 03:00 16.50 2916 12.80 ----
04/27 04:00 15.75 2537 12.78 ----
04/27 05:00 15.26 2293 12.77 ----
04/27 06:00 14.94 2136 12.75 ----
04/27 07:00 14.71 2022 12.73 ----
04/27 08:00 14.54 1939 12.85 ----
04/27 09:00 14.41 1876 13.37 ----
04/27 10:00 14.28 1813 14.38 ----
04/27 11:00 14.18 1765 14.30 ----
04/27 12:00 14.08 1718 14.19 ----
04/27 13:00 13.99 1675 14.11 ----
04/27 14:00 13.90 1632 13.82 ----
04/27 15:00 13.82 1594 13.33 ----
04/27 16:00 13.75 1561 13.19 ----
04/27 17:00 13.67 1523 13.13 ----
04/27 18:00 13.61 1496 13.05 ----
04/27 19:00 13.55 1468 12.97 ----
04/27 20:00 13.46 1427 12.88 ----
04/27 21:00 13.40 1399 12.86 ----
04/27 22:00 13.35 1377 12.84 ----
04/27 23:00 13.29 1350 12.83 ----
Data processed at Tue 28Apr2026 04:51 GMT

NOTICE: If you are parsing this page

Please convert to using our Data API. Starting early 2026 we will be migrating to: https://water.usace.army.mil with modern pages rendered in JavaScript. When this migration completes you will no longer be able to scrape this page! CWMSDataAPI (CDA)

Timeseries IDs (TSIDs)

TSIDs used from left to right in the data table
LOVI.Stage.Inst.1Hour.0.Ccp-Rev
LOVI.Flow.Inst.1Hour.0.Ccp-Rev
LOVI.Volt-Battery.Inst.1Hour.0.Ccp-Rev
LOVI.Volt-Battery Load.Inst.1Hour.0.Ccp-Rev

                            

All information presented herein is the property of the government of the United States of America and may be revised or deleted at any time without prior notice. Dissemination of this information without the expressed written consent of the Public Affairs Office, Tulsa District U.S. Army Corps of Engineers is strictly prohibited. These data are gathered electronically and, as presented, have NOT undergone any form of quality control. These data are NOT guaranteed to be valid or correct.